Terminal Aerodrome Forecast
Issued by NWS

Home | Current Version | Previous Version | Text Only | Print | Product List | Glossary On
Versions: 1 2 3 4 5 6 7 8 9 10 11 12 13 14 15 16 17 18 19 20 21 22 23 24 25 26 27 28 29 30 31 32 33 34
000
FTUS44 KHGX 050921 AAB
TAFLBX
TAF AMD
KLBX 050921Z 0509/0606 17003KT 4SM BR SCT015
      TEMPO 0509/0513 2SM BR
     FM051400 16005KT P6SM VCSH BKN030
     FM052100 18010KT P6SM SCT040
     FM060100 18003KT P6SM SKC=

USA.gov is the U.S. government's official web portal to all federal, state and local government web resources and services.